Tiempo atmosférico en la estación meteorológica de Tornavacas, Cáceres (991 m.)



Fecha
DESCASC
Temp. máxima en grados centígrados (hora)
DESCASC
Temp. mínima en grados centígrados (hora)
DESCASC
Temp. media en grados centígrados
DESCASC
Racha de viento máxima en m/sg (hora)
DESCASC
Velocidad máxima media en intervalos de 10 minutos(hora)
DESCASC
Precipitaciones diarias en mm
DESCASC
Precipitaciones de 00:00 a 06:00 en mm
DESCASC
Precipitaciones de 06:00 a 12:00 en mm
DESCASC
Precipitaciones de 12:00 a 18:00 en mm
DESCASC
Precipitaciones de 18:00 a 24:00 en mm
DESCASC
15-08-2019 33.1 (17:00) 19.5 (07:50) 26.3 11.67 (07:20) 7.78 (08:30) 0 0 0 0 0
14-08-2019 31.5 (17:50) 16.5 (00:00) 24 11.39 (04:50) 8.33 (04:50) 0 0 0 0 0
13-08-2019 28.3 (18:00) 14.2 (00:00) 21.2 13.89 (04:20) 9.72 (04:40) 0 0 0 0 0
12-08-2019 23.3 (17:50) 9.5 (00:00) 16.4 13.89 (08:30) 9.17 (09:30) 0 0 0 0 0
11-08-2019 25.1 (17:10) 13.2 (00:00) 19.2 11.67 (05:40) 7.5 (05:40) 0 0 0 0 0
10-08-2019 25.9 (17:00) 13.4 (00:00) 19.6 12.5 (09:40) 9.72 (09:40) 0 0 0 0 0
09-08-2019 20.8 (00:00) 13.8 (00:00) 17.3 12.5 (16:30) 8.33 (16:30) 10.8 0 2.8 6.4 1.6
08-08-2019 28.7 (18:00) 16.9 (00:00) 22.8 16.39 (18:20) 8.61 (18:40) 0 0 0 0 0
07-08-2019 22.3 (00:00) 17 (00:00) 19.6 13.89 (09:20) 8.33 (09:20) 2 0 0 2 0
06-08-2019 30.3 (15:50) 19.1 (00:00) 24.7 12.22 (06:20) 7.22 (03:50) 0 0 0 0 0
05-08-2019 31.7 (17:10) 18.5 (00:00) 25.1 10.83 (02:20) 7.5 (02:30) 0 0 0 0 0
04-08-2019 31.4 (17:10) 18.7 (00:00) 25.1 11.11 (00:30) 6.94 (08:10) 0 0 0 0 0
03-08-2019 32 (18:10) 20.1 (00:00) 26.1 8.89 (15:10) 6.39 (03:50) 0 0 0 0 0
02-08-2019 32 (17:10) 17.6 (00:00) 24.8 10.28 (02:30) 8.06 (09:00) 0 0 0 0 0
01-08-2019 30.3 (17:10) 18.3 (00:00) 24.3 9.17 (00:10) 6.39 (00:30) 0 0 0 0 0
31-07-2019 30.7 (17:20) 17.1 (00:00) 23.9 15 (08:20) 9.44 (08:40) 0 0 0 0 0
30-07-2019 26 (17:20) 10.3 (00:00) 18.2 13.89 (07:10) 9.17 (10:00) 0 0 0 0 0
29-07-2019 27.4 (17:10) 16.7 (00:00) 22.1 11.11 (07:20) 8.33 (07:50) 0 0 0 0 0
28-07-2019 27.6 (18:10) 14.5 (00:00) 21.1 10.56 (07:20) 8.33 (06:30) 0 0 0 0 0
27-07-2019 22.7 (17:50) 13 (00:00) 17.9 12.78 (06:20) 8.61 (06:20) 0 0 0 0 0
26-07-2019 26.4 (16:40) 17.1 (00:00) 21.8 10.83 (06:20) 6.39 (06:00) 0 0 0 0 0
25-07-2019 30 (17:20) 20.2 (00:00) 25.1 11.39 (16:20) 7.5 (02:50) 0 0 0 0 0
24-07-2019 32.5 (17:20) 20.2 (00:00) 26.4 11.39 (15:20) 6.94 (15:40) 0 0 0 0 0
23-07-2019 32.4 (18:40) 19.8 (00:00) 26.1 17.5 (00:20) 9.17 (07:10) 3.6 2 0 0 1.6
22-07-2019 35.5 (17:10) 22.3 (00:00) 28.9 11.39 (04:30) 8.61 (04:30) 0 0 0 0 0
21-07-2019 34.1 (17:50) 20.4 (00:00) 27.2 12.22 (05:20) 8.33 (05:20) 0 0 0 0 0
20-07-2019 33.5 (17:50) 21.7 (00:00) 27.6 12.22 (02:20) 9.44 (07:50) 0 0 0 0 0
19-07-2019 33.4 (18:00) 21.2 (00:00) 27.3 10.28 (16:10) 6.94 (05:40) 0 0 0 0 0

Gráficas

Temp. máximas Temp. mínimas Temp. medias Precipitaciones Rachas de viento máximas Velocidades máximas media en intervalos de 10 minutos

Datos horarios

Fecha y hora oficial Temperatura (ºC) Velocidad del viento (km/h) Dirección del viento Racha (km/h) Dirección de racha Precipitación (mm) Presión (hPa) Tendencia (hPa) Humedad (%)
2019-08-17 23:00:00 23.1 8 Este 13 Sudeste 0 -- -- 34
2019-08-17 22:00:00 24 6 Este 12 Este 0 -- -- 35
2019-08-17 21:00:00 27.5 6 Sudeste 18 Oeste 0 -- -- 31
2019-08-17 20:00:00 31.4 12 Oeste 28 Oeste 0 -- -- 26
2019-08-17 19:00:00 32.6 17 Oeste 30 Oeste 0 -- -- 21
2019-08-17 18:00:00 32.8 18 Sudoeste 37 Sudoeste 0 -- -- 21
2019-08-17 17:00:00 32.4 19 Sudoeste 33 Sudoeste 0 -- -- 22
2019-08-17 16:00:00 31.6 19 Sudoeste 28 Sudoeste 0 -- -- 23
2019-08-17 15:00:00 31.5 15 Oeste 30 Sudoeste 0 -- -- 26
2019-08-17 14:00:00 30.6 18 Oeste 36 Sudoeste 0 -- -- 28
2019-08-17 13:00:00 29.8 21 Oeste 31 Sudoeste 0 -- -- 31
2019-08-17 12:00:00 27.5 12 Sur 19 Sur 0 -- -- 36
2019-08-17 11:00:00 26.9 10 Sudoeste 15 Sudoeste 0 -- -- 35
2019-08-17 10:00:00 23.7 4 Sudeste 15 Este 0 -- -- 42
2019-08-17 09:00:00 20.9 9 Este 27 Nordeste 0 -- -- 45
2019-08-17 08:00:00 21.6 17 Nordeste 31 Nordeste 0 -- -- 44
2019-08-17 07:00:00 20.2 22 Nordeste 39 Norte 0 -- -- 47
2019-08-17 06:00:00 20.5 23 Nordeste 35 Nordeste 0 -- -- 46
2019-08-17 05:00:00 22.2 31 Nordeste 42 Este 0 -- -- 41
2019-08-17 04:00:00 22.6 26 Este 39 Este 0 -- -- 40
2019-08-17 03:00:00 21.4 24 Nordeste 36 Este 0 -- -- 45
2019-08-17 02:00:00 22.8 17 Nordeste 35 Nordeste 0 -- -- 42
2019-08-17 01:00:00 23.1 24 Nordeste 33 Nordeste 0 -- -- 36
2019-08-17 00:00:00 23.9 23 Nordeste 31 Nordeste 0 -- -- 34
2019-08-16 23:00:00 24.6 21 Nordeste 29 Nordeste 0 -- -- 37
2019-08-16 22:00:00 24.8 8 Este 14 Nordeste 0 -- -- 41
2019-08-16 21:00:00 26.3 10 Nordeste 15 Nordeste 0 -- -- 39
2019-08-16 20:00:00 31.3 4 Norte 17 Oeste 0 -- -- 30
2019-08-16 19:00:00 32.5 13 Oeste 30 Sudoeste 0 -- -- 24
2019-08-16 18:00:00 32.4 18 Sudoeste 31 Sudoeste 0 -- -- 28
2019-08-16 17:00:00 32.5 15 Sudoeste 28 Oeste 0 -- -- 29
2019-08-16 16:00:00 32.2 10 Oeste 28 Sudoeste 0 -- -- 28
2019-08-16 15:00:00 31.1 12 Sudoeste 29 Oeste 0 -- -- 30
2019-08-16 14:00:00 30.3 14 Sudoeste 23 Sudoeste 0 -- -- 33
2019-08-16 13:00:00 28.6 11 Sudoeste 17 Sudoeste 0 -- -- 38
2019-08-16 12:00:00 27.3 7 Sudoeste 12 Oeste 0 -- -- 39
2019-08-16 11:00:00 25.5 5 Sudoeste 12 Nordeste 0 -- -- 43
2019-08-16 10:00:00 23.6 8 Nordeste 26 Este 0 -- -- 47
2019-08-16 09:00:00 21.1 14 Nordeste 21 Nordeste 0 -- -- 50
2019-08-16 08:00:00 21.4 15 Nordeste 28 Nordeste 0 -- -- 47
2019-08-16 07:00:00 20.4 20 Nordeste 27 Nordeste 0 -- -- 52
2019-08-16 06:00:00 22.2 24 Nordeste 42 Nordeste 0 -- -- 47
2019-08-16 05:00:00 23.3 17 Nordeste 31 Nordeste 0 -- -- 46
2019-08-16 04:00:00 23.4 19 Nordeste 32 Este 0 -- -- 46
2019-08-16 03:00:00 23 26 Este 35 Nordeste 0 -- -- 46
2019-08-16 02:00:00 22.9 20 Nordeste 30 Este 0 -- -- 46
2019-08-16 01:00:00 25.1 20 Este 36 Este 0 -- -- 40
2019-08-16 00:00:00 23.8 22 Nordeste 31 Nordeste 0 -- -- 39
2019-08-15 23:00:00 26.4 15 Este 23 Este 0 -- -- 34
2019-08-15 22:00:00 25.3 13 Nordeste 23 Nordeste 0 -- -- 37
2019-08-15 21:00:00 26.5 18 Nordeste 27 Nordeste 0 -- -- 36
2019-08-15 20:00:00 30.3 11 Nordeste 21 Nordeste 0 -- -- 30
2019-08-15 19:00:00 31.6 10 Nordeste 21 Nordeste 0 -- -- 25
2019-08-15 18:00:00 32.4 10 Nordeste 18 Norte 0 -- -- 28
2019-08-15 17:00:00 33.1 11 Oeste 19 Oeste 0 -- -- 31
2019-08-15 16:00:00 32.4 15 Sudoeste 24 Oeste 0 -- -- 32
2019-08-15 15:00:00 31.9 13 Sudoeste 24 Sudoeste 0 -- -- 34
2019-08-15 14:00:00 30.7 6 Sur 19 Sudoeste 0 -- -- 34
2019-08-15 13:00:00 29.5 6 Noroeste 21 Nordeste 0 -- -- 39
2019-08-15 12:00:00 26.7 14 Nordeste 31 Nordeste 0 -- -- 47
2019-08-15 11:00:00 24.1 19 Este 34 Nordeste 0 -- -- 53
2019-08-15 10:00:00 21.8 22 Nordeste 35 Nordeste 0 -- -- 57
2019-08-15 09:00:00 19.7 23 Nordeste 41 Este 0 -- -- 61
2019-08-15 08:00:00 19.8 20 Este 42 Nordeste 0 -- -- 60
2019-08-15 07:00:00 20 25 Este 36 Este 0 -- -- 60
2019-08-15 06:00:00 21.2 19 Este 33 Este 0 -- -- 58
2019-08-15 05:00:00 21.3 22 Este 32 Este 0 -- -- 57
2019-08-15 04:00:00 21.4 21 Este 31 Este 0 -- -- 54
2019-08-15 03:00:00 20.9 19 Nordeste 37 Nordeste 0 -- -- 55
2019-08-15 02:00:00 21.3 21 Nordeste 31 Nordeste 0 -- -- 53
2019-08-15 01:00:00 21.6 21 Nordeste 32 Nordeste 0 -- -- 48
2019-08-15 00:00:00 22.9 19 Nordeste 26 Nordeste 0 -- -- 43
2019-08-14 23:00:00 23.9 12 Nordeste 23 Nordeste 0 -- -- 39
2019-08-14 22:00:00 25.3 13 Nordeste 23 Este 0 -- -- 35
2019-08-14 21:00:00 25.4 10 Nordeste 15 Nordeste 0 -- -- 37
2019-08-14 20:00:00 30 6 Norte 12 Norte 0 -- -- 30
2019-08-14 19:00:00 31.2 5 Noroeste 17 Sudoeste 0 -- -- 24
2019-08-14 18:00:00 30.8 6 Noroeste 21 Sudoeste 0 -- -- 24
2019-08-14 17:00:00 30.7 14 Sudoeste 25 Sudoeste 0 -- -- 24
2019-08-14 16:00:00 30.3 8 Sudoeste 23 Sudoeste 0 -- -- 25
2019-08-14 15:00:00 29.7 11 Sudoeste 19 Sudoeste 0 -- -- 26
2019-08-14 14:00:00 28.2 6 Oeste 20 Sudoeste 0 -- -- 27
2019-08-14 13:00:00 27.1 7 Sudoeste 14 Sudoeste 0 -- -- 27
2019-08-14 12:00:00 26 8 Sudoeste 14 Sudoeste 0 -- -- 28
2019-08-14 11:00:00 23.9 10 Nordeste 21 Nordeste 0 -- -- 32
2019-08-14 10:00:00 20.8 8 Sudeste 26 Nordeste 0 -- -- 38
2019-08-14 09:00:00 17.9 14 Nordeste 22 Nordeste 0 -- -- 38
2019-08-14 08:00:00 16.6 10 Este 15 Nordeste 0 -- -- 41
2019-08-14 07:00:00 17.2 11 Sudeste 27 Nordeste 0 -- -- 39
2019-08-14 06:00:00 17.4 24 Nordeste 39 Nordeste 0 -- -- 37
2019-08-14 05:00:00 17.7 24 Nordeste 41 Nordeste 0 -- -- 36
2019-08-14 04:00:00 17.4 22 Nordeste 32 Nordeste 0 -- -- 36
2019-08-14 03:00:00 17.7 18 Nordeste 31 Nordeste 0 -- -- 35
2019-08-14 02:00:00 20.1 17 Este 30 Nordeste 0 -- -- 30
2019-08-14 01:00:00 20.6 18 Este 31 Este 0 -- -- 29
2019-08-14 00:00:00 20.5 17 Este 31 Este 0 -- -- 30
2019-08-13 23:00:00 19.2 22 Nordeste 29 Nordeste 0 -- -- 34
2019-08-13 22:00:00 22 15 Este 28 Este 0 -- -- 29
2019-08-13 21:00:00 22.6 12 Nordeste 29 Este 0 -- -- 30
2019-08-13 20:00:00 25.9 14 Nordeste 29 Nordeste 0 -- -- 26
2019-08-13 19:00:00 27.3 11 Nordeste 22 Nordeste 0 -- -- 25
2019-08-13 18:00:00 28.3 11 Oeste 21 Sudoeste 0 -- -- 26
2019-08-13 17:00:00 27.4 13 Sudoeste 24 Sudoeste 0 -- -- 28
2019-08-13 16:00:00 26.9 13 Sudoeste 23 Sudoeste 0 -- -- 29
2019-08-13 15:00:00 26.4 12 Sudoeste 22 Sudoeste 0 -- -- 27
2019-08-13 14:00:00 24.9 5 Noroeste 20 Nordeste 0 -- -- 29
2019-08-13 13:00:00 23.5 9 Norte 21 Este 0 -- -- 30
2019-08-13 12:00:00 22.3 12 Nordeste 25 Nordeste 0 -- -- 33
2019-08-13 11:00:00 19.5 21 Nordeste 32 Nordeste 0 -- -- 37
2019-08-13 10:00:00 17.8 23 Este 34 Este 0 -- -- 39
2019-08-13 09:00:00 15.8 22 Este 33 Este 0 -- -- 41
2019-08-13 08:00:00 15.2 24 Este 32 Nordeste 0 -- -- 42
2019-08-13 07:00:00 15.4 24 Este 34 Este 0 -- -- 42
2019-08-13 06:00:00 15.7 23 Este 42 Este 0 -- -- 40
2019-08-13 05:00:00 15.2 29 Este 50 Nordeste 0 -- -- 41
2019-08-13 04:00:00 15.4 22 Nordeste 28 Nordeste 0 -- -- 41
2019-08-13 03:00:00 17.1 17 Este 30 Este 0 -- -- 37
2019-08-13 02:00:00 16.9 18 Este 32 Nordeste 0 -- -- 37
2019-08-13 01:00:00 16.1 18 Nordeste 32 Nordeste 0 -- -- 39
2019-08-13 00:00:00 18 17 Este 28 Este 0 -- -- 34
2019-08-12 23:00:00 18.3 16 Este 33 Este 0 -- -- 34
2019-08-12 22:00:00 17.7 11 Nordeste 22 Este 0 -- -- 37
2019-08-12 21:00:00 19.3 16 Este 34 Este 0 -- -- 33
2019-08-12 20:00:00 21.3 11 Nordeste 30 Nordeste 0 -- -- 33
2019-08-12 19:00:00 22.2 16 Nordeste 28 Nordeste 0 -- -- 31
2019-08-12 18:00:00 23.3 15 Nordeste 31 Nordeste 0 -- -- 30
2019-08-12 17:00:00 22.9 17 Nordeste 32 Nordeste 0 -- -- 31
2019-08-12 16:00:00 22.6 17 Nordeste 33 Nordeste 0 -- -- 31
2019-08-12 15:00:00 21.6 14 Nordeste 32 Nordeste 0 -- -- 31
2019-08-12 14:00:00 19.9 19 Nordeste 32 Este 0 -- -- 37
2019-08-12 13:00:00 19 15 Nordeste 38 Este 0 -- -- 40
2019-08-12 12:00:00 16.9 24 Nordeste 46 Nordeste 0 -- -- 44
2019-08-12 11:00:00 15.2 24 Nordeste 46 Nordeste 0 -- -- 57
2019-08-12 10:00:00 13.2 24 Nordeste 50 Nordeste 0 -- -- 65
2019-08-12 09:00:00 10.3 20 Nordeste 50 Este 0 -- -- 72
2019-08-12 08:00:00 10.2 26 Este 44 Este 0 -- -- 71
2019-08-12 07:00:00 10.3 24 Este 41 Este 0 -- -- 70
2019-08-12 06:00:00 10.5 23 Este 39 Nordeste 0 -- -- 71
2019-08-12 05:00:00 10.8 24 Nordeste 33 Nordeste 0 -- -- 71
2019-08-12 04:00:00 11.8 18 Nordeste 35 Este 0 -- -- 67
2019-08-12 03:00:00 13.6 23 Este 45 Este 0 -- -- 59
2019-08-12 02:00:00 14 20 Este 46 Este 0 -- -- 59
2019-08-12 01:00:00 15.1 27 Este 45 Este 0 -- -- 55
2019-08-12 00:00:00 16.2 20 Este 33 Nordeste 0 -- -- 46
2019-08-11 23:00:00 16.9 18 Este 40 Este 0 -- -- 44
2019-08-11 22:00:00 17.9 15 Este 35 Este 0 -- -- 40
2019-08-11 21:00:00 19.1 10 Nordeste 26 Nordeste 0 -- -- 40
2019-08-11 20:00:00 21.7 14 Nordeste 27 Este 0 -- -- 36
2019-08-11 19:00:00 23.1 10 Nordeste 42 Nordeste 0 -- -- 35
2019-08-11 18:00:00 23.4 12 Nordeste 26 Nordeste 0 -- -- 37
2019-08-11 17:00:00 24.6 9 Sudoeste 21 Sudoeste 0 -- -- 36
2019-08-11 16:00:00 22.8 12 Sudoeste 24 Oeste 0 -- -- 39
2019-08-11 15:00:00 23.2 14 Sudoeste 26 Sudoeste 0 -- -- 37
2019-08-11 14:00:00 22.8 16 Sudoeste 25 Sudoeste 0 -- -- 46
2019-08-11 13:00:00 21.5 6 Sudoeste 15 Sudoeste 0 -- -- 46
2019-08-11 12:00:00 19.2 12 Nordeste 26 Nordeste 0 -- -- 61
2019-08-11 11:00:00 17.8 17 Nordeste 28 Nordeste 0 -- -- 67
2019-08-11 10:00:00 16.2 19 Nordeste 27 Nordeste 0 -- -- 68
2019-08-11 09:00:00 13.2 6 Sudeste 9 Este 0 -- -- 72
2019-08-11 08:00:00 14 7 Nordeste 28 Nordeste 0 -- -- 64
2019-08-11 07:00:00 14.5 21 Nordeste 31 Este 0 -- -- 69
2019-08-11 06:00:00 15.5 20 Este 42 Este 0 -- -- 67
2019-08-11 05:00:00 15.8 19 Nordeste 36 Este 0 -- -- 67
2019-08-11 04:00:00 17.2 17 Nordeste 35 Nordeste 0 -- -- 58
2019-08-11 03:00:00 17.7 21 Nordeste 33 Nordeste 0 -- -- 54
2019-08-11 02:00:00 19.8 15 Este 32 Nordeste 0 -- -- 44
2019-08-11 01:00:00 18.5 23 Nordeste 32 Nordeste 0 -- -- 53
2019-08-11 00:00:00 20 16 Este 26 Nordeste 0 -- -- 47
2019-08-10 23:00:00 18.9 6 Este 12 Este 0 -- -- 54
2019-08-10 22:00:00 19.6 9 Nordeste 12 Nordeste 0 -- -- 47
2019-08-10 21:00:00 20.7 4 Este 10 Sudoeste 0 -- -- 50
2019-08-10 20:00:00 22.3 9 Sudoeste 22 Sudoeste 0 -- -- 37
2019-08-10 19:00:00 23.8 14 Sudoeste 23 Sudoeste 0 -- -- 41
2019-08-10 18:00:00 24.8 13 Sudoeste 24 Sudoeste 0 -- -- 38
2019-08-10 17:00:00 25.9 13 Oeste 26 Sudoeste 0 -- -- 43
2019-08-10 16:00:00 24.8 15 Sudoeste 22 Sudoeste 0 -- -- 46
2019-08-10 15:00:00 23.5 12 Sudoeste 20 Sudoeste 0 -- -- 44
2019-08-10 14:00:00 22 13 Sudoeste 20 Sudoeste 0 -- -- 45
2019-08-10 13:00:00 22 9 Sudoeste 25 Nordeste 0 -- -- 46
2019-08-10 12:00:00 18.8 21 Nordeste 38 Nordeste 0 -- -- 65
2019-08-10 11:00:00 15.9 26 Nordeste 44 Nordeste 0 -- -- 78
2019-08-10 10:00:00 14.7 30 Este 45 Este 0 -- -- 78
2019-08-10 09:00:00 13.8 29 Nordeste 40 Nordeste 0 -- -- 81
2019-08-10 08:00:00 13.7 24 Nordeste 39 Nordeste 0 -- -- 81
2019-08-10 07:00:00 13.8 22 Nordeste 36 Nordeste 0 -- -- 81
2019-08-10 06:00:00 13.8 30 Nordeste 40 Nordeste 0 -- -- 79
2019-08-10 05:00:00 14.1 23 Este 44 Este 0 -- -- 79
2019-08-10 04:00:00 14.8 29 Este 41 Este 0 -- -- 76
2019-08-10 03:00:00 15.3 20 Nordeste 35 Este 0 -- -- 75
2019-08-10 02:00:00 16.4 22 Este 37 Este 0 -- -- 73
2019-08-10 01:00:00 16.2 19 Este 33 Este 0 -- -- 75
2019-08-10 00:00:00 15.9 14 Nordeste 31 Este 0 -- -- 80
2019-08-09 23:00:00 14.7 22 Nordeste 29 Nordeste 0 -- -- 78
2019-08-09 22:00:00 14.4 5 Este 13 Este 0 -- -- 88
2019-08-09 21:00:00 16.9 10 Nordeste 13 Nordeste 0 -- -- 88
2019-08-09 20:00:00 17.2 3 Este 17 Sudoeste 0 -- -- 99
2019-08-09 19:00:00 16.1 5 Sudoeste 28 Sudoeste 1.6 -- -- 99
2019-08-09 18:00:00 16.3 15 Sudoeste 38 Sudoeste 1.8 -- -- 99
2019-08-09 17:00:00 16.9 22 Sudoeste 45 Sudoeste 1.6 -- -- 99
2019-08-09 16:00:00 18.5 24 Sudoeste 41 Sudoeste 2 -- -- 98
2019-08-09 15:00:00 19.2 21 Sudoeste 39 Sudoeste 0 -- -- 98
2019-08-09 14:00:00 18.8 24 Sudoeste 35 Sudoeste 0.4 -- -- 99
2019-08-09 13:00:00 18.6 21 Sudoeste 33 Sudoeste 0.6 -- -- 99
2019-08-09 12:00:00 17.7 25 Sudoeste 36 Sudoeste 1.6 -- -- 98
2019-08-09 11:00:00 17.5 23 Sudoeste 29 Sudoeste 0.4 -- -- 98
2019-08-09 10:00:00 17.4 22 Sudoeste 29 Sudoeste 0.4 -- -- 98
2019-08-09 09:00:00 16.9 19 Sudoeste 26 Sudoeste 0.4 -- -- 98
2019-08-09 08:00:00 16.8 18 Sudoeste 30 Sudoeste 0 -- -- 97
2019-08-09 07:00:00 16.5 18 Sudoeste 26 Sudoeste 0 -- -- 95
2019-08-09 06:00:00 17.2 11 Sudoeste 17 Sudoeste 0 -- -- 92
2019-08-09 05:00:00 17.8 9 Sudoeste 14 Sur 0 -- -- 88
2019-08-09 04:00:00 18 8 Sur 14 Sudoeste 0 -- -- 85
2019-08-09 03:00:00 18.1 2 Sur 10 Sur 0 -- -- 81
2019-08-09 02:00:00 18.8 2 Sur 8 Sudeste 0 -- -- 78
2019-08-09 01:00:00 19.3 3 Sudeste 7 Sudeste 0 -- -- 75
2019-08-09 00:00:00 20.8 3 Sudoeste 15 Sudoeste 0 -- -- 70
2019-08-08 23:00:00 22.3 7 Sudoeste 16 Sudoeste 0 -- -- 65
2019-08-08 22:00:00 23.6 9 Sudoeste 25 Sudoeste 0 -- -- 60
2019-08-08 21:00:00 25 14 Sudoeste 36 Sudoeste 0 -- -- 54
2019-08-08 20:00:00 27.6 22 Sudoeste 43 Oeste 0 -- -- 47
2019-08-08 19:00:00 28 27 Sudoeste 59 Sudoeste 0 -- -- 43
2019-08-08 18:00:00 28.7 26 Sudoeste 43 Sudoeste 0 -- -- 40
2019-08-08 17:00:00 26.4 23 Sudoeste 49 Sudoeste 0 -- -- 47
2019-08-08 16:00:00 27.1 27 Sudoeste 40 Oeste 0 -- -- 47
2019-08-08 15:00:00 26.9 24 Sudoeste 41 Sudoeste 0 -- -- 47
2019-08-08 14:00:00 26.7 20 Oeste 37 Sudoeste 0 -- -- 50
2019-08-08 13:00:00 24.8 20 Sudoeste 29 Oeste 0 -- -- 57
2019-08-08 12:00:00 22.9 17 Sudoeste 26 Oeste 0 -- -- 61
2019-08-08 11:00:00 20.9 13 Sudoeste 18 Sudoeste 0 -- -- 66
2019-08-08 10:00:00 20.2 5 Sudoeste 10 Sudoeste 0 -- -- 70
2019-08-08 09:00:00 18.9 4 Sudoeste 6 Sur 0 -- -- 73
2019-08-08 08:00:00 18.1 0 Calma 6 Sudeste 0 -- -- 77
2019-08-08 07:00:00 18.4 2 Sudeste 8 Sudeste 0 -- -- 73
2019-08-08 06:00:00 18.4 4 Sudeste 8 Sudeste 0 -- -- 73
2019-08-08 05:00:00 18 0 Calma 10 Sur 0 -- -- 76
2019-08-08 04:00:00 18.5 7 Sur 11 Sur 0 -- -- 72
2019-08-08 03:00:00 17.8 3 Sudoeste 10 Sur 0 -- -- 77
2019-08-08 02:00:00 17.5 2 Sur 5 Sudoeste 0 -- -- 78
2019-08-08 01:00:00 17.2 3 Sur 6 Sudeste 0 -- -- 79
2019-08-08 00:00:00 17 3 Sur 9 Sur 0 -- -- 79
2019-08-07 23:00:00 17 4 Sur 7 Sur 0 -- -- 79
2019-08-07 22:00:00 17.4 5 Sudeste 12 Sudoeste 0 -- -- 79
2019-08-07 21:00:00 19.9 5 Sudoeste 12 Oeste 0 -- -- 70
2019-08-07 20:00:00 20.7 5 Noroeste 16 Sudoeste 0 -- -- 66
2019-08-07 19:00:00 20.3 11 Sudoeste 26 Sudoeste 0 -- -- 66
2019-08-07 18:00:00 20 14 Sudoeste 20 Sudoeste 0 -- -- 72
2019-08-07 17:00:00 19.1 3 Sudoeste 15 Sudoeste 0 -- -- 78
2019-08-07 16:00:00 17.6 13 Sudoeste 23 Sudoeste 0.2 -- -- 85
2019-08-07 15:00:00 18.8 8 Sudoeste 12 Sudoeste 0.6 -- -- 83
2019-08-07 14:00:00 19.4 0 Calma 4 Sudoeste 0.6 -- -- 73
2019-08-07 13:00:00 18.2 0 Calma 18 Sudoeste 0.6 -- -- 80
2019-08-07 12:00:00 19.7 13 Sudoeste 19 Sudoeste 0 -- -- 72
2019-08-07 11:00:00 20.5 4 Oeste 23 Nordeste 0 -- -- 69
2019-08-07 10:00:00 19.8 18 Nordeste 50 Nordeste 0 -- -- 68
2019-08-07 09:00:00 18.6 26 Nordeste 37 Nordeste 0 -- -- 71
2019-08-07 08:00:00 17.3 2 Este 9 Oeste 0 -- -- 70
2019-08-07 07:00:00 18.8 6 Sudoeste 13 Oeste 0 -- -- 66
2019-08-07 06:00:00 19 4 Sudeste 9 Este 0 -- -- 64
2019-08-07 05:00:00 19.5 4 Este 9 Este 0 -- -- 62
2019-08-07 04:00:00 21.3 10 Este 30 Nordeste 0 -- -- 56
2019-08-07 03:00:00 21.5 15 Nordeste 28 Nordeste 0 -- -- 58
2019-08-07 02:00:00 21.8 19 Este 30 Este 0 -- -- 56
2019-08-07 01:00:00 21.1 8 Sudeste 12 Sudeste 0 -- -- 53
2019-08-07 00:00:00 22.3 4 Sudeste 13 Este 0 -- -- 49
2019-08-06 23:00:00 23.4 6 Sudeste 13 Este 0 -- -- 45
2019-08-06 22:00:00 23.1 6 Este 10 Sur 0 -- -- 46
2019-08-06 21:00:00 25.9 10 Sur 22 Oeste 0 -- -- 40
2019-08-06 20:00:00 27.6 11 Sudoeste 27 Sudoeste 0 -- -- 36
2019-08-06 19:00:00 29.1 15 Sudoeste 32 Sudoeste 0 -- -- 29
2019-08-06 18:00:00 30.1 19 Oeste 32 Sudoeste 0 -- -- 29
2019-08-06 17:00:00 29.9 19 Sudoeste 33 Sudoeste 0 -- -- 30
2019-08-06 16:00:00 30.2 20 Sudoeste 37 Sudoeste 0 -- -- 31
2019-08-06 15:00:00 29.6 21 Sudoeste 31 Sudoeste 0 -- -- 31
2019-08-06 14:00:00 28.9 17 Sudoeste 28 Sudoeste 0 -- -- 34
2019-08-06 13:00:00 27.7 17 Sudoeste 25 Sudoeste 0 -- -- 37
2019-08-06 12:00:00 26.1 13 Sudoeste 18 Sudoeste 0 -- -- 36
2019-08-06 11:00:00 24.9 6 Oeste 12 Oeste 0 -- -- 38
2019-08-06 10:00:00 24.2 4 Sudoeste 17 Nordeste 0 -- -- 40
2019-08-06 09:00:00 19.9 11 Nordeste 31 Nordeste 0 -- -- 47
2019-08-06 08:00:00 20.7 20 Nordeste 33 Nordeste 0 -- -- 42
2019-08-06 07:00:00 19.1 23 Nordeste 44 Nordeste 0 -- -- 44
2019-08-06 06:00:00 20.6 19 Nordeste 36 Nordeste 0 -- -- 42
2019-08-06 05:00:00 20.9 16 Nordeste 33 Nordeste 0 -- -- 47
2019-08-06 04:00:00 22.1 24 Nordeste 36 Este 0 -- -- 41
2019-08-06 03:00:00 21.5 19 Este 36 Nordeste 0 -- -- 38
2019-08-06 02:00:00 22.1 20 Este 34 Este 0 -- -- 30
2019-08-06 01:00:00 21.6 20 Nordeste 26 Nordeste 0 -- -- 29
2019-08-06 00:00:00 22.5 9 Nordeste 16 Nordeste 0 -- -- 28
2019-08-05 23:00:00 22.5 5 Este 12 Nordeste 0 -- -- 29
2019-08-05 22:00:00 23.2 5 Este 13 Nordeste 0 -- -- 29
2019-08-05 21:00:00 25.5 11 Nordeste 15 Oeste 0 -- -- 30
2019-08-05 20:00:00 30.7 10 Oeste 22 Sudoeste 0 -- -- 22
2019-08-05 19:00:00 30.9 16 Sudoeste 26 Oeste 0 -- -- 20
2019-08-05 18:00:00 31.1 16 Oeste 28 Sudoeste 0 -- -- 21
2019-08-05 17:00:00 31.3 17 Sudoeste 31 Sudoeste 0 -- -- 21
2019-08-05 16:00:00 30.8 21 Sudoeste 32 Oeste 0 -- -- 21
2019-08-05 15:00:00 30.3 18 Oeste 33 Oeste 0 -- -- 26
2019-08-05 14:00:00 29.1 18 Sudoeste 27 Sudoeste 0 -- -- 28
2019-08-05 13:00:00 27.2 17 Sudoeste 23 Sudoeste 0 -- -- 31
2019-08-05 12:00:00 25.5 8 Sudoeste 13 Sudoeste 0 -- -- 35
2019-08-05 11:00:00 25.1 9 Sudoeste 14 Sudoeste 0 -- -- 37
2019-08-05 10:00:00 23 2 Sur 13 Sudeste 0 -- -- 35
2019-08-05 09:00:00 18.5 9 Sudeste 13 Este 0 -- -- 40
2019-08-05 08:00:00 19.8 7 Sudeste 24 Nordeste 0 -- -- 37
2019-08-05 07:00:00 19.8 21 Nordeste 28 Nordeste 0 -- -- 45
2019-08-05 06:00:00 20 8 Este 26 Nordeste 0 -- -- 47
2019-08-05 05:00:00 20.5 19 Nordeste 30 Nordeste 0 -- -- 46
2019-08-05 04:00:00 21.2 17 Nordeste 34 Nordeste 0 -- -- 45
2019-08-05 03:00:00 22.3 27 Este 39 Este 0 -- -- 42
2019-08-05 02:00:00 22.1 26 Este 36 Este 0 -- -- 39
2019-08-05 01:00:00 20.6 9 Este 13 Sudeste 0 -- -- 43
2019-08-05 00:00:00 21.3 9 Nordeste 15 Nordeste 0 -- -- 42
2019-08-04 23:00:00 22.5 8 Este 14 Nordeste 0 -- -- 40
2019-08-04 22:00:00 23.8 9 Sudeste 13 Sudeste 0 -- -- 38
2019-08-04 21:00:00 27.5 0 Calma 23 Sudoeste 0 -- -- 36
2019-08-04 20:00:00 30 17 Sudoeste 27 Sudoeste 0 -- -- 32
2019-08-04 19:00:00 30.5 20 Sudoeste 33 Sudoeste 0 -- -- 31
2019-08-04 18:00:00 31.1 17 Sudoeste 31 Sudoeste 0 -- -- 31
2019-08-04 17:00:00 31 16 Sudoeste 31 Oeste 0 -- -- 28
2019-08-04 16:00:00 30.6 17 Sudoeste 32 Sudoeste 0 -- -- 32
2019-08-04 15:00:00 29.5 19 Sudoeste 31 Oeste 0 -- -- 34
2019-08-04 14:00:00 28.1 17 Sudoeste 25 Sudoeste 0 -- -- 38
2019-08-04 13:00:00 26.9 9 Sudoeste 18 Oeste 0 -- -- 38
2019-08-04 12:00:00 25.6 7 Sudoeste 17 Sudoeste 0 -- -- 40
2019-08-04 11:00:00 25.4 7 Sudoeste 10 Oeste 0 -- -- 42
2019-08-04 10:00:00 23.7 0 Calma 30 Nordeste 0 -- -- 40
2019-08-04 09:00:00 20.6 19 Nordeste 39 Nordeste 0 -- -- 51
2019-08-04 08:00:00 18.8 23 Nordeste 32 Nordeste 0 -- -- 53
2019-08-04 07:00:00 19.4 22 Nordeste 32 Nordeste 0 -- -- 51
2019-08-04 06:00:00 21 21 Este 33 Nordeste 0 -- -- 47
2019-08-04 05:00:00 22.3 21 Este 34 Este 0 -- -- 44
2019-08-04 04:00:00 22.6 19 Este 32 Este 0 -- -- 43
2019-08-04 03:00:00 21.7 19 Nordeste 34 Este 0 -- -- 44
2019-08-04 02:00:00 21.5 22 Nordeste 35 Nordeste 0 -- -- 43
2019-08-04 01:00:00 22.8 20 Nordeste 40 Este 0 -- -- 37
2019-08-04 00:00:00 22.9 8 Nordeste 15 Nordeste 0 -- -- 36
2019-08-03 23:00:00 23.7 9 Nordeste 15 Nordeste 0 -- -- 36
2019-08-03 22:00:00 23.9 6 Este 14 Nordeste 0 -- -- 36
2019-08-03 21:00:00 26.1 10 Nordeste 14 Oeste 0 -- -- 37
2019-08-03 20:00:00 30.8 12 Sudoeste 29 Sudoeste 0 -- -- 29
2019-08-03 19:00:00 31.5 14 Oeste 24 Sudoeste 0 -- -- 25
2019-08-03 18:00:00 31.8 13 Sudoeste 30 Sudoeste 0 -- -- 21
2019-08-03 17:00:00 31.8 15 Oeste 26 Sudoeste 0 -- -- 22
2019-08-03 16:00:00 31.2 15 Sudoeste 32 Oeste 0 -- -- 24
2019-08-03 15:00:00 30.3 18 Sudoeste 31 Sudoeste 0 -- -- 28
2019-08-03 14:00:00 29.3 18 Oeste 29 Oeste 0 -- -- 31
2019-08-03 13:00:00 28.3 17 Sudoeste 26 Sudoeste 0 -- -- 29
2019-08-03 12:00:00 26.8 8 Sudoeste 12 Sudoeste 0 -- -- 33
2019-08-03 11:00:00 25 8 Sudoeste 14 Sudoeste 0 -- -- 31
2019-08-03 10:00:00 24.7 3 Sudeste 15 Sudeste 0 -- -- 32
2019-08-03 09:00:00 20.4 10 Sudeste 17 Este 0 -- -- 34
2019-08-03 08:00:00 20.2 10 Este 21 Nordeste 0 -- -- 31
2019-08-03 07:00:00 20.9 15 Nordeste 24 Nordeste 0 -- -- 34
2019-08-03 06:00:00 21.1 17 Nordeste 28 Nordeste 0 -- -- 35
2019-08-03 05:00:00 22.1 17 Nordeste 30 Nordeste 0 -- -- 33
2019-08-03 04:00:00 22.4 21 Nordeste 31 Nordeste 0 -- -- 32
2019-08-03 03:00:00 23.2 12 Este 24 Este 0 -- -- 31
2019-08-03 02:00:00 24.2 12 Este 22 Nordeste 0 -- -- 29
2019-08-03 01:00:00 24.1 13 Este 23 Nordeste 0 -- -- 29
2019-08-03 00:00:00 22.5 9 Nordeste 16 Nordeste 0 -- -- 33
2019-08-02 23:00:00 23.1 9 Nordeste 15 Nordeste 0 -- -- 32
2019-08-02 22:00:00 23.5 6 Este 14 Nordeste 0 -- -- 34
2019-08-02 21:00:00 26.5 9 Nordeste 16 Oeste 0 -- -- 30
2019-08-02 20:00:00 31 10 Oeste 25 Sudoeste 0 -- -- 23
2019-08-02 19:00:00 31.5 16 Sudoeste 25 Sudoeste 0 -- -- 21
2019-08-02 18:00:00 31.9 14 Sudoeste 28 Oeste 0 -- -- 22
2019-08-02 17:00:00 31.8 15 Sudoeste 24 Oeste 0 -- -- 24
2019-08-02 16:00:00 30.9 13 Sudoeste 25 Sudoeste 0 -- -- 26
2019-08-02 15:00:00 29.9 13 Sudoeste 25 Sudoeste 0 -- -- 28
2019-08-02 14:00:00 29.4 15 Sudoeste 26 Oeste 0 -- -- 28
2019-08-02 13:00:00 27.8 9 Sudoeste 17 Sudoeste 0 -- -- 32
2019-08-02 12:00:00 26.2 11 Sudoeste 17 Sudoeste 0 -- -- 35
2019-08-02 11:00:00 25 10 Sudoeste 13 Oeste 0 -- -- 39
2019-08-02 10:00:00 23.2 11 Nordeste 36 Nordeste 0 -- -- 42
2019-08-02 09:00:00 20.2 29 Nordeste 36 Nordeste 0 -- -- 43
2019-08-02 08:00:00 18.6 20 Nordeste 29 Nordeste 0 -- -- 48
2019-08-02 07:00:00 17.9 22 Nordeste 31 Nordeste 0 -- -- 50
2019-08-02 06:00:00 18.8 19 Nordeste 32 Nordeste 0 -- -- 48
2019-08-02 05:00:00 21.2 21 Nordeste 36 Este 0 -- -- 43
2019-08-02 04:00:00 21 24 Este 35 Este 0 -- -- 42
2019-08-02 03:00:00 20.5 24 Este 37 Nordeste 0 -- -- 43
2019-08-02 02:00:00 20.3 23 Nordeste 32 Nordeste 0 -- -- 43
2019-08-02 01:00:00 21.8 18 Nordeste 32 Nordeste 0 -- -- 37
2019-08-02 00:00:00 21.2 6 Este 15 Nordeste 0 -- -- 38
2019-08-01 23:00:00 22 5 Este 15 Nordeste 0 -- -- 37
2019-08-01 22:00:00 23 12 Nordeste 16 Nordeste 0 -- -- 36
2019-08-01 21:00:00 25 9 Nordeste 13 Nordeste 0 -- -- 34
2019-08-01 20:00:00 29.3 11 Oeste 23 Sudoeste 0 -- -- 25
2019-08-01 19:00:00 30.1 15 Sudoeste 28 Oeste 0 -- -- 22
2019-08-01 18:00:00 30.1 16 Sudoeste 31 Sudoeste 0 -- -- 20
2019-08-01 17:00:00 30 19 Sudoeste 32 Sudoeste 0 -- -- 26
2019-08-01 16:00:00 29.4 20 Sudoeste 32 Sudoeste 0 -- -- 29
2019-08-01 15:00:00 29.2 14 Sudoeste 29 Sudoeste 0 -- -- 28
2019-08-01 14:00:00 28.2 14 Sudoeste 32 Sudoeste 0 -- -- 31
2019-08-01 13:00:00 26.7 14 Sudoeste 21 Sudoeste 0 -- -- 36
2019-08-01 12:00:00 25.2 13 Sudoeste 20 Sudoeste 0 -- -- 39
2019-08-01 11:00:00 23.7 6 Oeste 12 Sudoeste 0 -- -- 42
2019-08-01 10:00:00 21.6 0 Calma 5 Sudeste 0 -- -- 45
2019-08-01 09:00:00 18.7 4 Sudeste 12 Sudeste 0 -- -- 52
2019-08-01 08:00:00 18.5 6 Sudeste 12 Este 0 -- -- 52
2019-08-01 07:00:00 18.8 5 Nordeste 9 Nordeste 0 -- -- 43
2019-08-01 06:00:00 20.2 5 Sudeste 13 Este 0 -- -- 34
2019-08-01 05:00:00 19.7 7 Este 22 Nordeste 0 -- -- 31
2019-08-01 04:00:00 20.6 14 Nordeste 21 Nordeste 0 -- -- 35
2019-08-01 03:00:00 20.6 8 Este 26 Nordeste 0 -- -- 32
2019-08-01 02:00:00 21.3 18 Nordeste 25 Este 0 -- -- 42
2019-08-01 01:00:00 23 15 Este 33 Este 0 -- -- 38
2019-08-01 00:00:00 22.5 20 Nordeste 31 Nordeste 0 -- -- 38
2019-07-31 23:00:00 22.3 9 Este 15 Este 0 -- -- 36
2019-07-31 22:00:00 22.7 5 Este 11 Este 0 -- -- 33
2019-07-31 21:00:00 24.5 6 Este 11 Nordeste 0 -- -- 36
2019-07-31 20:00:00 27.5 2 Este 20 Oeste 0 -- -- 32
2019-07-31 19:00:00 29.3 12 Oeste 28 Oeste 0 -- -- 26
2019-07-31 18:00:00 30.5 19 Oeste 33 Oeste 0 -- -- 25
2019-07-31 17:00:00 30.4 18 Oeste 36 Sudoeste 0 -- -- 24
2019-07-31 16:00:00 30.2 19 Oeste 32 Oeste 0 -- -- 21
2019-07-31 15:00:00 29.5 19 Oeste 37 Oeste 0 -- -- 22
2019-07-31 14:00:00 28.2 21 Sudoeste 33 Sudoeste 0 -- -- 30
2019-07-31 13:00:00 26.6 13 Sudoeste 21 Sudoeste 0 -- -- 37
2019-07-31 12:00:00 25.5 6 Sur 14 Nordeste 0 -- -- 38
2019-07-31 11:00:00 23.2 10 Nordeste 31 Nordeste 0 -- -- 34
2019-07-31 10:00:00 20.1 22 Nordeste 36 Este 0 -- -- 37
2019-07-31 09:00:00 18.2 19 Nordeste 54 Este 0 -- -- 39
2019-07-31 08:00:00 18.2 30 Este 44 Este 0 -- -- 36
2019-07-31 07:00:00 17.9 25 Este 46 Este 0 -- -- 37
2019-07-31 06:00:00 17.9 27 Este 41 Este 0 -- -- 37
2019-07-31 05:00:00 18 25 Este 44 Este 0 -- -- 38
2019-07-31 04:00:00 18 28 Este 44 Este 0 -- -- 37
2019-07-31 03:00:00 17.4 30 Nordeste 46 Nordeste 0 -- -- 39
2019-07-31 02:00:00 19.6 23 Este 40 Este 0 -- -- 35
2019-07-31 01:00:00 19.2 24 Este 39 Este 0 -- -- 35
2019-07-31 00:00:00 19.4 25 Este 36 Este 0 -- -- 35
2019-07-30 23:00:00 20.2 18 Este 35 Este 0 -- -- 33
2019-07-30 22:00:00 20.7 18 Este 49 Este 0 -- -- 32
2019-07-30 21:00:00 21.8 17 Este 31 Nordeste 0 -- -- 32
2019-07-30 20:00:00 24.7 13 Nordeste 30 Nordeste 0 -- -- 30
2019-07-30 19:00:00 25.2 19 Nordeste 31 Este 0 -- -- 28
2019-07-30 18:00:00 25.9 16 Nordeste 30 Norte 0 -- -- 27
2019-07-30 17:00:00 25.8 14 Nordeste 29 Nordeste 0 -- -- 27
2019-07-30 16:00:00 25.3 15 Nordeste 31 Norte 0 -- -- 27
2019-07-30 15:00:00 24.6 13 Nordeste 31 Nordeste 0 -- -- 26
2019-07-30 14:00:00 22.8 19 Nordeste 32 Nordeste 0 -- -- 29
2019-07-30 13:00:00 21 21 Nordeste 35 Nordeste 0 -- -- 35
2019-07-30 12:00:00 18.6 24 Nordeste 37 Nordeste 0 -- -- 46
2019-07-30 11:00:00 16.1 25 Nordeste 44 Nordeste 0 -- -- 55
2019-07-30 10:00:00 13.1 33 Nordeste 47 Nordeste 0 -- -- 64
2019-07-30 09:00:00 11.5 26 Nordeste 44 Este 0 -- -- 69
2019-07-30 08:00:00 10.9 23 Este 50 Nordeste 0 -- -- 70
2019-07-30 07:00:00 10.7 30 Este 49 Este 0 -- -- 69
2019-07-30 06:00:00 11.9 18 Este 45 Nordeste 0 -- -- 65
2019-07-30 05:00:00 11.4 29 Nordeste 46 Nordeste 0 -- -- 67
2019-07-30 04:00:00 12.6 23 Nordeste 36 Nordeste 0 -- -- 63
2019-07-30 03:00:00 13.8 20 Nordeste 38 Este 0 -- -- 59
2019-07-30 02:00:00 14.8 17 Nordeste 38 Este 0 -- -- 55
2019-07-30 01:00:00 15.2 23 Nordeste 38 Este 0 -- -- 50
2019-07-30 00:00:00 17.1 19 Nordeste 37 Este 0 -- -- 43
2019-07-29 23:00:00 18.7 19 Nordeste 35 Nordeste 0 -- -- 37
2019-07-29 22:00:00 20.3 17 Este 28 Nordeste 0 -- -- 35
2019-07-29 21:00:00 22.7 10 Nordeste 24 Oeste 0 -- -- 35
2019-07-29 20:00:00 25.6 16 Sudoeste 30 Sudoeste 0 -- -- 30
2019-07-29 19:00:00 26.8 19 Sudoeste 35 Sudoeste 0 -- -- 29
2019-07-29 18:00:00 26.8 18 Sudoeste 33 Sudoeste 0 -- -- 33
2019-07-29 17:00:00 27.3 16 Sudoeste 34 Sudoeste 0 -- -- 34
2019-07-29 16:00:00 26.7 22 Sudoeste 36 Sudoeste 0 -- -- 33
2019-07-29 15:00:00 26.7 17 Sudoeste 31 Sudoeste 0 -- -- 32
2019-07-29 14:00:00 25.8 20 Sudoeste 31 Sudoeste 0 -- -- 35
2019-07-29 13:00:00 25.2 18 Sudoeste 26 Sudoeste 0 -- -- 37
2019-07-29 12:00:00 23.2 12 Nordeste 29 Nordeste 0 -- -- 41
2019-07-29 11:00:00 20.6 20 Nordeste 40 Nordeste 0 -- -- 49
2019-07-29 10:00:00 19 25 Nordeste 37 Nordeste 0 -- -- 53
2019-07-29 09:00:00 17 27 Nordeste 39 Nordeste 0 -- -- 58
2019-07-29 08:00:00 16.8 30 Nordeste 40 Nordeste 0 -- -- 61
2019-07-29 07:00:00 17.3 21 Nordeste 35 Nordeste 0 -- -- 61
2019-07-29 06:00:00 18.3 23 Este 32 Nordeste 0 -- -- 56
2019-07-29 05:00:00 18.5 21 Nordeste 32 Nordeste 0 -- -- 53
2019-07-29 04:00:00 18.9 24 Este 34 Este 0 -- -- 51
2019-07-29 03:00:00 19.5 16 Nordeste 27 Nordeste 0 -- -- 48
2019-07-29 02:00:00 19.2 6 Este 13 Nordeste 0 -- -- 48
2019-07-29 01:00:00 19.5 9 Nordeste 13 Nordeste 0 -- -- 48
2019-07-29 00:00:00 19.7 5 Este 11 Este 0 -- -- 49
2019-07-28 23:00:00 20 6 Este 13 Norte 0 -- -- 48
2019-07-28 22:00:00 20.8 8 Este 15 Nordeste 0 -- -- 47
2019-07-28 21:00:00 23.3 7 Nordeste 17 Oeste 0 -- -- 44
2019-07-28 20:00:00 27 13 Oeste 29 Oeste 0 -- -- 34
2019-07-28 19:00:00 27.2 14 Oeste 27 Sudoeste 0 -- -- 33
2019-07-28 18:00:00 27.3 14 Sudoeste 27 Sudoeste 0 -- -- 33
2019-07-28 17:00:00 27 14 Sudoeste 29 Sudoeste 0 -- -- 34
2019-07-28 16:00:00 26.2 14 Sudoeste 31 Sudoeste 0 -- -- 38
2019-07-28 15:00:00 26.2 15 Sudoeste 29 Sudoeste 0 -- -- 39
2019-07-28 14:00:00 24.8 16 Sudoeste 32 Sudoeste 0 -- -- 43
2019-07-28 13:00:00 24.1 16 Sudoeste 28 Sudoeste 0 -- -- 44
2019-07-28 12:00:00 22.4 14 Sudoeste 21 Sudoeste 0 -- -- 50
2019-07-28 11:00:00 20.9 6 Sudoeste 12 Oeste 0 -- -- 55
2019-07-28 10:00:00 19.3 5 Sur 10 Sudeste 0 -- -- 59
2019-07-28 09:00:00 16.2 7 Sudeste 26 Nordeste 0 -- -- 67
2019-07-28 08:00:00 14.9 22 Nordeste 38 Nordeste 0 -- -- 72
2019-07-28 07:00:00 15.5 22 Nordeste 38 Nordeste 0 -- -- 70
2019-07-28 06:00:00 15.9 22 Nordeste 33 Este 0 -- -- 69
2019-07-28 05:00:00 16.6 14 Este 29 Este 0 -- -- 66
2019-07-28 04:00:00 16.2 13 Este 27 Nordeste 0 -- -- 68
2019-07-28 03:00:00 17.5 13 Este 24 Este 0 -- -- 63
2019-07-28 02:00:00 18.4 16 Este 27 Este 0 -- -- 60
2019-07-28 01:00:00 18.8 12 Nordeste 34 Este 0 -- -- 59
2019-07-28 00:00:00 19.4 13 Este 28 Este 0 -- -- 56
2019-07-27 23:00:00 17.6 6 Este 11 Este 0 -- -- 66
2019-07-26 12:00:00 20.2 19 Nordeste 33 Este 0 -- -- 65
2019-07-26 11:00:00 19.4 19 Nordeste 39 Este 0 -- -- 70
2019-07-26 10:00:00 18.9 17 Nordeste 32 Nordeste 0 -- -- 73
2019-07-26 09:00:00 17.3 22 Este 38 Nordeste 0 -- -- 82
2019-07-26 08:00:00 17.1 17 Este 30 Nordeste 0 -- -- 83
2019-07-26 07:00:00 17.4 14 Nordeste 39 Este 0 -- -- 82
2019-07-26 06:00:00 17.4 23 Este 32 Este 0 -- -- 82
2019-07-26 05:00:00 17.9 15 Este 30 Este 0 -- -- 81
2019-07-26 04:00:00 18.7 15 Nordeste 26 Nordeste 0 -- -- 77
2019-07-26 03:00:00 19.5 18 Este 30 Nordeste 0 -- -- 73
2019-07-26 02:00:00 20.8 13 Nordeste 21 Nordeste 0 -- -- 59
2019-07-26 01:00:00 21.1 6 Este 12 Nordeste 0 -- -- 52
2019-07-26 00:00:00 22.2 5 Este 18 Nordeste 0 -- -- 44
2019-07-25 23:00:00 22 8 Nordeste 13 Nordeste 0 -- -- 45
2019-07-25 22:00:00 23 3 Sudeste 10 Sur 0 -- -- 45
2019-07-25 21:00:00 25.9 8 Sudoeste 31 Sudoeste 0 -- -- 41
2019-07-25 20:00:00 28.6 19 Oeste 35 Oeste 0 -- -- 38
2019-07-25 19:00:00 28.7 24 Sudoeste 39 Sudoeste 0 -- -- 37
2019-07-25 18:00:00 29.2 21 Sudoeste 39 Oeste 0 -- -- 35
2019-07-25 17:00:00 29.8 21 Oeste 41 Oeste 0 -- -- 31
2019-07-25 16:00:00 29 26 Sudoeste 40 Oeste 0 -- -- 33
2019-07-25 15:00:00 27.1 19 Sudoeste 38 Oeste 0 -- -- 36
2019-07-25 14:00:00 27.5 21 Sudoeste 39 Sudoeste 0 -- -- 36
2019-07-25 13:00:00 27 20 Sudoeste 28 Sudoeste 0 -- -- 37
2019-07-25 12:00:00 25.1 18 Sudoeste 24 Sudoeste 0 -- -- 42
2019-07-25 11:00:00 24 10 Sudoeste 20 Sudoeste 0 -- -- 47
2019-07-25 10:00:00 25.2 5 Sudoeste 10 Este 0 -- -- 43
2019-07-25 09:00:00 21.2 7 Este 12 Este 0 -- -- 52
2019-07-25 08:00:00 20.7 8 Este 13 Este 0 -- -- 50
2019-07-25 07:00:00 20.8 8 Este 13 Sudeste 0 -- -- 47
2019-07-25 06:00:00 20.3 8 Este 13 Este 0 -- -- 50
2019-07-25 05:00:00 20.8 8 Este 14 Este 0 -- -- 49
2019-07-25 04:00:00 22.6 12 Nordeste 30 Este 0 -- -- 45
2019-07-25 03:00:00 23.5 22 Este 35 Nordeste 0 -- -- 43
2019-07-25 02:00:00 23 14 Nordeste 27 Nordeste 0 -- -- 43
2019-07-25 01:00:00 23.7 9 Nordeste 15 Nordeste 0 -- -- 42
2019-07-25 00:00:00 24.4 8 Este 15 Sudeste 0 -- -- 40
2019-07-24 23:00:00 24.6 6 Este 12 Este 0 -- -- 41
2019-07-24 22:00:00 25.2 10 Sudeste 12 Sudeste 0 -- -- 45
2019-07-24 21:00:00 29.5 3 Sur 24 Sudoeste 0 -- -- 39
2019-07-24 20:00:00 31.9 14 Oeste 27 Oeste 0 -- -- 31
2019-07-24 19:00:00 32.3 13 Oeste 34 Oeste 0 -- -- 30
2019-07-24 18:00:00 32.3 20 Sudoeste 35 Sudoeste 0 -- -- 31
2019-07-24 17:00:00 31.9 13 Sudoeste 37 Sudoeste 0 -- -- 33
2019-07-24 16:00:00 31.8 23 Oeste 41 Oeste 0 -- -- 33
2019-07-24 15:00:00 31.4 18 Sudoeste 38 Oeste 0 -- -- 32
2019-07-24 14:00:00 30.8 19 Sudoeste 33 Sudoeste 0 -- -- 34
2019-07-24 13:00:00 30.2 18 Oeste 31 Oeste 0 -- -- 35
2019-07-24 12:00:00 28.5 6 Sudoeste 12 Sudoeste 0 -- -- 40
2019-07-24 11:00:00 27.4 3 Oeste 9 Nordeste 0 -- -- 44
2019-07-24 10:00:00 24.5 6 Este 14 Este 0 -- -- 51
2019-07-24 09:00:00 21.7 11 Sudeste 19 Nordeste 0 -- -- 55
2019-07-24 08:00:00 20.8 9 Este 18 Sudeste 0 -- -- 57
2019-07-24 07:00:00 20.6 9 Este 17 Este 0 -- -- 56
2019-07-24 06:00:00 20.7 9 Este 14 Sudeste 0 -- -- 55
2019-07-24 05:00:00 20.2 7 Este 15 Sudeste 0 -- -- 57
2019-07-24 04:00:00 21 10 Este 23 Este 0 -- -- 54
2019-07-24 03:00:00 22.7 18 Este 29 Este 0 -- -- 54
2019-07-24 02:00:00 22.7 13 Nordeste 26 Nordeste 0 -- -- 54
2019-07-24 01:00:00 22.4 19 Nordeste 27 Nordeste 0 -- -- 56
2019-07-24 00:00:00 21.2 8 Sudeste 32 Nordeste 0 -- -- 68
2019-07-23 23:00:00 20.9 6 Sudeste 33 Este 1.6 -- -- 73
2019-07-23 22:00:00 26.7 7 Sudeste 13 Sudeste 0 -- -- 44
2019-07-23 21:00:00 27 10 Nordeste 18 Oeste 0 -- -- 44
2019-07-23 20:00:00 30.9 12 Oeste 21 Oeste 0 -- -- 36
2019-07-23 19:00:00 32.1 16 Oeste 25 Oeste 0 -- -- 33
2019-07-23 18:00:00 31.5 17 Noroeste 33 Sudoeste 0 -- -- 34
2019-07-23 17:00:00 31.9 21 Oeste 36 Oeste 0 -- -- 34
2019-07-23 16:00:00 31.9 21 Oeste 34 Oeste 0 -- -- 32
2019-07-23 15:00:00 31.4 15 Oeste 30 Oeste 0 -- -- 34
2019-07-23 14:00:00 30 18 Oeste 30 Sudoeste 0 -- -- 34
2019-07-23 13:00:00 27 15 Sudoeste 23 Sudoeste 0 -- -- 41
2019-07-23 12:00:00 25.8 5 Sudoeste 19 Sudeste 0 -- -- 46
2019-07-23 11:00:00 24.4 12 Nordeste 40 Sudoeste 0 -- -- 45
2019-07-23 10:00:00 23.4 9 Nordeste 39 Nordeste 0 -- -- 53
2019-07-23 09:00:00 21 28 Nordeste 38 Nordeste 0 -- -- 57
2019-07-23 08:00:00 22.2 26 Este 47 Nordeste 0 -- -- 49
2019-07-23 07:00:00 20.4 31 Nordeste 48 Nordeste 0 -- -- 60
2019-07-23 06:00:00 20.8 27 Este 48 Este 0.2 -- -- 60
2019-07-23 05:00:00 20.3 9 Nordeste 18 Norte 0.4 -- -- 69
2019-07-23 04:00:00 22.6 21 Nordeste 48 Nordeste 0 -- -- 52
2019-07-23 03:00:00 22.6 29 Este 45 Este 1.4 -- -- 52
2019-07-23 02:00:00 25 18 Nordeste 35 Este 0 -- -- 41
2019-07-23 01:00:00 27.4 18 Nordeste 63 Este 0 -- -- 29
2019-07-23 00:00:00 27.7 23 Este 35 Este 0 -- -- 29
2019-07-22 23:00:00 27.3 21 Nordeste 37 Este 0 -- -- 32
2019-07-22 22:00:00 30.5 19 Este 41 Este 0 -- -- 28
2019-07-22 21:00:00 30.2 11 Nordeste 16 Nordeste 0 -- -- 39
2019-07-22 20:00:00 33.9 6 Sudoeste 22 Este 0 -- -- 28
2019-07-22 19:00:00 35.1 7 Nordeste 26 Sudoeste 0 -- -- 28
2019-07-22 18:00:00 34.8 15 Noroeste 30 Noroeste 0 -- -- 28
2019-07-22 17:00:00 35.1 15 Oeste 27 Oeste 0 -- -- 28
2019-07-22 16:00:00 34.4 18 Oeste 30 Oeste 0 -- -- 28
2019-07-22 15:00:00 33.8 19 Oeste 27 Oeste 0 -- -- 30
2019-07-22 14:00:00 32.9 12 Sudoeste 17 Sudoeste 0 -- -- 33
2019-07-22 13:00:00 32.1 10 Sudoeste 16 Sudoeste 0 -- -- 35
2019-07-22 12:00:00 30 8 Nordeste 35 Nordeste 0 -- -- 36
2019-07-22 11:00:00 26.6 22 Nordeste 31 Nordeste 0 -- -- 43
2019-07-22 10:00:00 25 15 Norte 28 Este 0 -- -- 47
2019-07-22 09:00:00 23.3 21 Nordeste 37 Nordeste 0 -- -- 49
2019-07-22 08:00:00 22.3 24 Nordeste 37 Nordeste 0 -- -- 49
2019-07-22 07:00:00 22.7 23 Nordeste 38 Nordeste 0 -- -- 47
2019-07-22 06:00:00 25 19 Nordeste 37 Este 0 -- -- 41
2019-07-22 05:00:00 25.8 26 Nordeste 41 Nordeste 0 -- -- 35
2019-07-22 04:00:00 26.5 12 Este 23 Nordeste 0 -- -- 33
2019-07-22 03:00:00 27.7 16 Este 35 Este 0 -- -- 30
2019-07-22 02:00:00 27 24 Este 36 Este 0 -- -- 33
2019-07-22 01:00:00 27.7 15 Este 28 Este 0 -- -- 32
2019-07-22 00:00:00 25.2 19 Nordeste 28 Nordeste 0 -- -- 36
2019-07-21 23:00:00 26.1 10 Nordeste 16 Nordeste 0 -- -- 37
2019-07-21 22:00:00 27.1 9 Nordeste 17 Norte 0 -- -- 35
2019-07-21 21:00:00 27.4 12 Nordeste 15 Nordeste 0 -- -- 44
2019-07-21 20:00:00 31.4 7 Nordeste 12 Oeste 0 -- -- 35
2019-07-21 19:00:00 33.1 10 Noroeste 22 Sudoeste 0 -- -- 28
2019-07-21 18:00:00 34 16 Sudoeste 24 Oeste 0 -- -- 27
2019-07-21 17:00:00 33.6 12 Sudoeste 27 Sudoeste 0 -- -- 28
2019-07-21 16:00:00 33.3 17 Oeste 28 Sudoeste 0 -- -- 28
2019-07-21 15:00:00 32.4 18 Sudoeste 29 Sudoeste 0 -- -- 28
2019-07-21 14:00:00 31.9 19 Sudoeste 29 Sudoeste 0 -- -- 28
2019-07-21 13:00:00 31.5 17 Sudoeste 27 Sudoeste 0 -- -- 29
2019-07-21 12:00:00 29.9 8 Sudoeste 14 Sudoeste 0 -- -- 32
2019-07-21 11:00:00 28.6 6 Sudoeste 10 Sudoeste 0 -- -- 35
2019-07-21 10:00:00 25.7 3 Este 13 Este 0 -- -- 41
2019-07-21 09:00:00 23.1 10 Este 28 Nordeste 0 -- -- 41
2019-07-21 08:00:00 22.6 16 Nordeste 36 Nordeste 0 -- -- 44
2019-07-21 07:00:00 20.8 26 Nordeste 37 Nordeste 0 -- -- 47
2019-07-21 06:00:00 21.8 22 Nordeste 44 Este 0 -- -- 45
2019-07-21 05:00:00 22.6 26 Nordeste 38 Nordeste 0 -- -- 43
2019-07-21 04:00:00 23.2 21 Nordeste 33 Nordeste 0 -- -- 43
2019-07-21 03:00:00 23.2 18 Este 36 Este 0 -- -- 42
2019-07-21 02:00:00 23.1 27 Nordeste 38 Nordeste 0 -- -- 41
2019-07-21 01:00:00 23.2 24 Nordeste 31 Nordeste 0 -- -- 39
2019-07-21 00:00:00 24.1 20 Nordeste 30 Nordeste 0 -- -- 36
2019-07-20 23:00:00 25 20 Nordeste 33 Nordeste 0 -- -- 28
2019-07-20 22:00:00 24.6 8 Este 14 Nordeste 0 -- -- 34
2019-07-20 21:00:00 27.1 12 Nordeste 17 Sudoeste 0 -- -- 35
2019-07-20 20:00:00 32.1 11 Oeste 22 Sudoeste 0 -- -- 28
2019-07-20 19:00:00 33.3 13 Oeste 24 Oeste 0 -- -- 25
2019-07-20 18:00:00 33.3 15 Oeste 26 Sudoeste 0 -- -- 24
2019-07-20 17:00:00 32.8 17 Sudoeste 30 Sudoeste 0 -- -- 23
2019-07-20 16:00:00 32 14 Sudoeste 32 Sudoeste 0 -- -- 27
2019-07-20 15:00:00 31.2 15 Sudoeste 30 Oeste 0 -- -- 31
2019-07-20 14:00:00 30.7 17 Oeste 27 Sudoeste 0 -- -- 31
2019-07-20 13:00:00 29.2 16 Sudoeste 23 Sudoeste 0 -- -- 34
2019-07-20 12:00:00 27.7 6 Sudoeste 14 Sudoeste 0 -- -- 41
2019-07-20 11:00:00 26.1 6 Este 32 Nordeste 0 -- -- 45
2019-07-20 10:00:00 23.7 23 Nordeste 32 Nordeste 0 -- -- 51
2019-07-20 09:00:00 22.9 16 Nordeste 38 Nordeste 0 -- -- 53
2019-07-20 08:00:00 22.2 28 Nordeste 40 Este 0 -- -- 51
2019-07-20 07:00:00 21.8 25 Nordeste 39 Nordeste 0 -- -- 52
2019-07-20 06:00:00 22.9 25 Nordeste 38 Este 0 -- -- 49
2019-07-20 05:00:00 23.9 17 Este 33 Este 0 -- -- 47
2019-07-20 04:00:00 23.9 20 Este 35 Este 0 -- -- 47
2019-07-20 03:00:00 23.8 18 Este 44 Nordeste 0 -- -- 48
2019-07-20 02:00:00 23.2 23 Este 32 Nordeste 0 -- -- 49
2019-07-20 01:00:00 24 22 Nordeste 30 Nordeste 0 -- -- 45
2019-07-20 00:00:00 24 6 Este 16 Nordeste 0 -- -- 40
2019-07-19 23:00:00 24.6 6 Este 13 Nordeste 0 -- -- 40
2019-07-19 22:00:00 25.4 7 Este 13 Nordeste 0 -- -- 40
2019-07-19 21:00:00 27.6 10 Nordeste 14 Nordeste 0 -- -- 38
2019-07-19 20:00:00 30.7 4 Nordeste 15 Oeste 0 -- -- 33
2019-07-19 19:00:00 32.6 14 Oeste 26 Sudoeste 0 -- -- 28
2019-07-19 18:00:00 33.4 13 Oeste 30 Oeste 0 -- -- 28
2019-07-19 17:00:00 33 17 Oeste 37 Sudoeste 0 -- -- 27
2019-07-19 16:00:00 32.3 17 Sudoeste 33 Sudoeste 0 -- -- 27
2019-07-19 15:00:00 32.1 15 Oeste 31 Sudoeste 0 -- -- 28
2019-07-19 14:00:00 31.7 17 Sudoeste 30 Sudoeste 0 -- -- 30
2019-07-19 13:00:00 30.9 16 Sudoeste 29 Sudoeste 0 -- -- 31
2019-07-19 12:00:00 30.2 13 Sudoeste 19 Sudoeste 0 -- -- 35
2019-07-19 11:00:00 29.5 2 Este 8 Noroeste 0 -- -- 34
2019-07-19 10:00:00 25.9 4 Este 11 Este 0 -- -- 44
2019-07-19 09:00:00 22.9 7 Este 18 Nordeste 0 -- -- 47
2019-07-19 08:00:00 21.7 10 Nordeste 35 Nordeste 0 -- -- 46
2019-07-19 07:00:00 21.2 21 Nordeste 31 Nordeste 0 -- -- 45
2019-07-19 06:00:00 21.5 19 Nordeste 35 Nordeste 0 -- -- 43
2019-07-19 05:00:00 24.1 16 Este 30 Este 0 -- -- 35
2019-07-19 04:00:00 24.7 18 Este 31 Este 0 -- -- 34
2019-07-19 03:00:00 25.2 19 Este 30 Este 0 -- -- 32
2019-07-19 02:00:00 25 19 Este 30 Este 0 -- -- 34
2019-07-19 01:00:00 24.9 17 Este 29 Este 0 -- -- 35
2019-07-19 00:00:00 24.3 18 Nordeste 24 Nordeste 0 -- -- 40